Terminal Aerodrome Forecast
Issued by NWS

Home | Current Version | Previous Version | Text Only | Print | Product List | Glossary On
Versions: 1 2 3 4 5 6 7 8 9 10 11 12 13 14 15
000
FTUS45 KFGZ 242354 CCA
TAFSEZ
TAF COR
KSEZ 242354Z 2500/2524 VRB05KT P6SM BKN050 BKN100
      TEMPO 2500/2503 VRB15G25KT 5SM -TSRA BKN040CB OVC070
     FM250300 VRB06KT P6SM OVC060=

USA.gov is the U.S. government's official web portal to all federal, state and local government web resources and services.